sensor_id;sensor_type;location;lat;lon;timestamp;P1;durP1;ratioP1;P2;durP2;ratioP2
32746;SDS011;19118;50.860;13.662;2023-04-15T00:00:46;4.55;;;2.50;;
32746;SDS011;19118;50.860;13.662;2023-04-15T00:05:47;5.05;;;2.75;;
32746;SDS011;19118;50.860;13.662;2023-04-15T00:10:47;4.20;;;2.33;;
32746;SDS011;19118;50.860;13.662;2023-04-15T00:15:48;4.72;;;2.33;;
32746;SDS011;19118;50.860;13.662;2023-04-15T00:20:48;7.33;;;2.67;;
32746;SDS011;19118;50.860;13.662;2023-04-15T00:25:49;4.28;;;2.35;;
32746;SDS011;19118;50.860;13.662;2023-04-15T00:30:49;5.25;;;2.50;;
32746;SDS011;19118;50.860;13.662;2023-04-15T00:35:50;3.55;;;2.20;;
32746;SDS011;19118;50.860;13.662;2023-04-15T00:40:51;4.38;;;2.45;;
32746;SDS011;19118;50.860;13.662;2023-04-15T00:45:52;5.55;;;2.42;;
32746;SDS011;19118;50.860;13.662;2023-04-15T00:50:55;4.85;;;2.80;;
32746;SDS011;19118;50.860;13.662;2023-04-15T00:55:56;3.88;;;2.10;;
32746;SDS011;19118;50.860;13.662;2023-04-15T01:00:57;4.28;;;2.30;;
32746;SDS011;19118;50.860;13.662;2023-04-15T01:05:58;3.30;;;1.85;;
32746;SDS011;19118;50.860;13.662;2023-04-15T01:11:00;3.65;;;1.80;;
32746;SDS011;19118;50.860;13.662;2023-04-15T01:16:02;3.17;;;2.00;;
32746;SDS011;19118;50.860;13.662;2023-04-15T01:21:03;3.53;;;1.77;;
32746;SDS011;19118;50.860;13.662;2023-04-15T01:26:05;3.92;;;1.95;;
32746;SDS011;19118;50.860;13.662;2023-04-15T01:31:08;3.53;;;2.15;;
32746;SDS011;19118;50.860;13.662;2023-04-15T01:36:12;2.60;;;1.88;;
32746;SDS011;19118;50.860;13.662;2023-04-15T01:41:13;3.53;;;2.10;;
32746;SDS011;19118;50.860;13.662;2023-04-15T01:46:13;4.05;;;2.30;;
32746;SDS011;19118;50.860;13.662;2023-04-15T01:51:14;4.83;;;2.03;;
32746;SDS011;19118;50.860;13.662;2023-04-15T01:56:15;3.47;;;1.80;;
32746;SDS011;19118;50.860;13.662;2023-04-15T02:01:17;2.65;;;1.83;;
32746;SDS011;19118;50.860;13.662;2023-04-15T02:06:18;3.05;;;2.00;;
32746;SDS011;19118;50.860;13.662;2023-04-15T02:11:19;3.73;;;1.87;;
32746;SDS011;19118;50.860;13.662;2023-04-15T02:16:19;4.22;;;2.25;;
32746;SDS011;19118;50.860;13.662;2023-04-15T02:21:20;5.00;;;2.42;;
32746;SDS011;19118;50.860;13.662;2023-04-15T02:26:20;5.27;;;2.60;;
32746;SDS011;19118;50.860;13.662;2023-04-15T02:31:21;3.55;;;2.40;;
32746;SDS011;19118;50.860;13.662;2023-04-15T02:36:21;2.95;;;1.80;;
32746;SDS011;19118;50.860;13.662;2023-04-15T02:41:22;2.80;;;1.90;;
32746;SDS011;19118;50.860;13.662;2023-04-15T02:46:27;3.35;;;1.95;;
32746;SDS011;19118;50.860;13.662;2023-04-15T02:51:29;4.45;;;2.33;;
32746;SDS011;19118;50.860;13.662;2023-04-15T02:56:31;5.68;;;2.70;;
32746;SDS011;19118;50.860;13.662;2023-04-15T03:01:31;4.10;;;1.90;;
32746;SDS011;19118;50.860;13.662;2023-04-15T03:06:31;4.38;;;2.75;;
32746;SDS011;19118;50.860;13.662;2023-04-15T03:11:32;4.55;;;2.67;;
32746;SDS011;19118;50.860;13.662;2023-04-15T03:16:33;4.30;;;2.42;;
32746;SDS011;19118;50.860;13.662;2023-04-15T03:21:33;6.07;;;1.85;;
32746;SDS011;19118;50.860;13.662;2023-04-15T03:26:33;3.60;;;2.30;;
32746;SDS011;19118;50.860;13.662;2023-04-15T03:31:43;4.07;;;2.08;;
32746;SDS011;19118;50.860;13.662;2023-04-15T03:36:45;4.18;;;2.42;;
32746;SDS011;19118;50.860;13.662;2023-04-15T03:41:46;2.70;;;1.60;;
32746;SDS011;19118;50.860;13.662;2023-04-15T03:46:46;3.17;;;1.85;;
32746;SDS011;19118;50.860;13.662;2023-04-15T03:51:50;4.15;;;2.45;;
32746;SDS011;19118;50.860;13.662;2023-04-15T03:56:50;4.00;;;2.10;;
32746;SDS011;19118;50.860;13.662;2023-04-15T04:01:50;4.17;;;2.50;;
32746;SDS011;19118;50.860;13.662;2023-04-15T04:06:51;6.20;;;2.78;;
32746;SDS011;19118;50.860;13.662;2023-04-15T04:11:51;5.13;;;2.67;;
32746;SDS011;19118;50.860;13.662;2023-04-15T04:16:51;3.50;;;2.13;;
32746;SDS011;19118;50.860;13.662;2023-04-15T04:21:52;3.80;;;2.13;;
32746;SDS011;19118;50.860;13.662;2023-04-15T04:26:52;3.45;;;2.00;;
32746;SDS011;19118;50.860;13.662;2023-04-15T04:31:53;2.15;;;1.60;;
32746;SDS011;19118;50.860;13.662;2023-04-15T04:36:53;5.50;;;1.70;;
32746;SDS011;19118;50.860;13.662;2023-04-15T04:41:53;2.17;;;1.20;;
32746;SDS011;19118;50.860;13.662;2023-04-15T04:46:54;2.47;;;1.60;;
32746;SDS011;19118;50.860;13.662;2023-04-15T04:51:54;3.23;;;1.80;;
32746;SDS011;19118;50.860;13.662;2023-04-15T04:56:55;3.05;;;1.40;;
32746;SDS011;19118;50.860;13.662;2023-04-15T05:01:56;2.45;;;1.50;;
32746;SDS011;19118;50.860;13.662;2023-04-15T05:06:57;4.53;;;3.03;;
32746;SDS011;19118;50.860;13.662;2023-04-15T05:11:58;3.20;;;1.10;;
32746;SDS011;19118;50.860;13.662;2023-04-15T05:16:58;1.90;;;0.93;;
32746;SDS011;19118;50.860;13.662;2023-04-15T05:21:59;3.73;;;0.87;;
32746;SDS011;19118;50.860;13.662;2023-04-15T05:27:00;2.63;;;1.48;;
32746;SDS011;19118;50.860;13.662;2023-04-15T05:32:01;1.50;;;0.85;;
32746;SDS011;19118;50.860;13.662;2023-04-15T05:37:01;6.18;;;0.80;;
32746;SDS011;19118;50.860;13.662;2023-04-15T05:42:01;1.02;;;0.80;;
32746;SDS011;19118;50.860;13.662;2023-04-15T05:47:02;0.60;;;0.60;;
32746;SDS011;19118;50.860;13.662;2023-04-15T05:52:02;1.83;;;0.95;;
32746;SDS011;19118;50.860;13.662;2023-04-15T05:57:03;2.50;;;1.10;;
32746;SDS011;19118;50.860;13.662;2023-04-15T06:02:03;2.60;;;1.60;;
32746;SDS011;19118;50.860;13.662;2023-04-15T06:07:03;3.40;;;2.00;;
32746;SDS011;19118;50.860;13.662;2023-04-15T06:12:04;4.00;;;2.17;;
32746;SDS011;19118;50.860;13.662;2023-04-15T06:17:06;2.38;;;1.58;;
32746;SDS011;19118;50.860;13.662;2023-04-15T06:22:06;5.75;;;1.90;;
32746;SDS011;19118;50.860;13.662;2023-04-15T06:27:07;11.25;;;5.90;;
32746;SDS011;19118;50.860;13.662;2023-04-15T06:32:07;8.27;;;4.05;;
32746;SDS011;19118;50.860;13.662;2023-04-15T06:37:07;2.55;;;1.98;;
32746;SDS011;19118;50.860;13.662;2023-04-15T06:42:10;2.13;;;1.52;;
32746;SDS011;19118;50.860;13.662;2023-04-15T06:47:11;1.90;;;1.30;;
32746;SDS011;19118;50.860;13.662;2023-04-15T06:52:13;1.17;;;0.90;;
32746;SDS011;19118;50.860;13.662;2023-04-15T06:57:15;4.15;;;0.93;;
32746;SDS011;19118;50.860;13.662;2023-04-15T07:02:15;1.17;;;1.05;;
32746;SDS011;19118;50.860;13.662;2023-04-15T07:07:16;2.70;;;1.17;;
32746;SDS011;19118;50.860;13.662;2023-04-15T07:12:16;5.88;;;0.90;;
32746;SDS011;19118;50.860;13.662;2023-04-15T07:17:17;2.35;;;1.00;;
32746;SDS011;19118;50.860;13.662;2023-04-15T07:22:17;1.07;;;0.73;;
32746;SDS011;19118;50.860;13.662;2023-04-15T07:27:17;1.02;;;0.77;;
32746;SDS011;19118;50.860;13.662;2023-04-15T07:32:18;1.10;;;0.70;;
32746;SDS011;19118;50.860;13.662;2023-04-15T07:37:18;1.27;;;0.40;;
32746;SDS011;19118;50.860;13.662;2023-04-15T07:42:19;0.98;;;0.40;;
32746;SDS011;19118;50.860;13.662;2023-04-15T07:47:19;2.15;;;0.50;;
32746;SDS011;19118;50.860;13.662;2023-04-15T07:52:20;0.68;;;0.60;;
32746;SDS011;19118;50.860;13.662;2023-04-15T07:57:20;1.85;;;0.43;;
32746;SDS011;19118;50.860;13.662;2023-04-15T08:02:20;1.70;;;0.40;;
32746;SDS011;19118;50.860;13.662;2023-04-15T08:07:21;3.55;;;0.32;;
32746;SDS011;19118;50.860;13.662;2023-04-15T08:12:22;4.47;;;0.52;;
32746;SDS011;19118;50.860;13.662;2023-04-15T08:17:23;0.60;;;0.50;;
32746;SDS011;19118;50.860;13.662;2023-04-15T08:22:23;1.75;;;0.75;;
32746;SDS011;19118;50.860;13.662;2023-04-15T08:27:24;0.65;;;0.52;;
32746;SDS011;19118;50.860;13.662;2023-04-15T08:32:24;0.28;;;0.28;;
32746;SDS011;19118;50.860;13.662;2023-04-15T08:37:26;2.90;;;1.92;;
32746;SDS011;19118;50.860;13.662;2023-04-15T08:42:27;4.10;;;2.78;;
32746;SDS011;19118;50.860;13.662;2023-04-15T08:47:31;3.28;;;2.80;;
32746;SDS011;19118;50.860;13.662;2023-04-15T08:52:32;3.47;;;3.13;;
32746;SDS011;19118;50.860;13.662;2023-04-15T08:57:33;5.90;;;3.30;;
32746;SDS011;19118;50.860;13.662;2023-04-15T09:02:34;4.38;;;2.08;;
32746;SDS011;19118;50.860;13.662;2023-04-15T09:07:35;4.10;;;2.53;;
32746;SDS011;19118;50.860;13.662;2023-04-15T09:12:36;2.65;;;2.33;;
32746;SDS011;19118;50.860;13.662;2023-04-15T09:17:36;2.58;;;2.38;;
32746;SDS011;19118;50.860;13.662;2023-04-15T09:22:42;9.70;;;3.55;;
32746;SDS011;19118;50.860;13.662;2023-04-15T09:27:47;5.78;;;4.28;;
32746;SDS011;19118;50.860;13.662;2023-04-15T09:32:49;4.90;;;3.45;;
32746;SDS011;19118;50.860;13.662;2023-04-15T09:38:04;5.90;;;4.13;;
32746;SDS011;19118;50.860;13.662;2023-04-15T09:43:09;30.33;;;16.23;;
32746;SDS011;19118;50.860;13.662;2023-04-15T09:48:16;7.63;;;4.07;;
32746;SDS011;19118;50.860;13.662;2023-04-15T09:53:19;3.72;;;3.15;;
32746;SDS011;19118;50.860;13.662;2023-04-15T09:58:21;7.47;;;3.40;;
32746;SDS011;19118;50.860;13.662;2023-04-15T10:03:27;4.57;;;3.42;;
32746;SDS011;19118;50.860;13.662;2023-04-15T10:08:31;4.43;;;3.17;;
32746;SDS011;19118;50.860;13.662;2023-04-15T10:13:32;5.22;;;3.92;;
32746;SDS011;19118;50.860;13.662;2023-04-15T10:18:35;4.82;;;3.08;;
32746;SDS011;19118;50.860;13.662;2023-04-15T10:23:39;4.28;;;3.30;;
32746;SDS011;19118;50.860;13.662;2023-04-15T10:28:40;4.65;;;3.40;;
32746;SDS011;19118;50.860;13.662;2023-04-15T10:33:41;4.40;;;2.60;;
32746;SDS011;19118;50.860;13.662;2023-04-15T10:38:43;3.90;;;3.30;;
32746;SDS011;19118;50.860;13.662;2023-04-15T10:43:55;4.88;;;3.17;;
32746;SDS011;19118;50.860;13.662;2023-04-15T10:48:59;4.50;;;3.03;;
32746;SDS011;19118;50.860;13.662;2023-04-15T10:59:25;4.18;;;2.80;;
32746;SDS011;19118;50.860;13.662;2023-04-15T11:09:55;4.57;;;2.72;;
32746;SDS011;19118;50.860;13.662;2023-04-15T11:14:56;3.45;;;2.80;;
32746;SDS011;19118;50.860;13.662;2023-04-15T11:19:57;5.20;;;2.60;;
32746;SDS011;19118;50.860;13.662;2023-04-15T11:24:57;2.80;;;2.22;;
32746;SDS011;19118;50.860;13.662;2023-04-15T11:29:57;4.35;;;2.70;;
32746;SDS011;19118;50.860;13.662;2023-04-15T11:34:58;4.47;;;2.70;;
32746;SDS011;19118;50.860;13.662;2023-04-15T11:39:58;8.07;;;3.03;;
32746;SDS011;19118;50.860;13.662;2023-04-15T11:45:06;5.60;;;4.47;;
32746;SDS011;19118;50.860;13.662;2023-04-15T11:50:20;2.80;;;2.40;;
32746;SDS011;19118;50.860;13.662;2023-04-15T11:55:22;4.50;;;3.33;;
32746;SDS011;19118;50.860;13.662;2023-04-15T12:00:23;3.70;;;3.00;;
32746;SDS011;19118;50.860;13.662;2023-04-15T12:05:24;5.47;;;2.90;;
32746;SDS011;19118;50.860;13.662;2023-04-15T12:10:24;4.57;;;2.63;;
32746;SDS011;19118;50.860;13.662;2023-04-15T12:15:25;7.15;;;2.72;;
32746;SDS011;19118;50.860;13.662;2023-04-15T12:20:26;6.07;;;2.97;;
32746;SDS011;19118;50.860;13.662;2023-04-15T12:25:35;4.50;;;2.70;;
32746;SDS011;19118;50.860;13.662;2023-04-15T12:35:36;7.60;;;3.00;;
32746;SDS011;19118;50.860;13.662;2023-04-15T12:40:36;8.70;;;2.77;;
32746;SDS011;19118;50.860;13.662;2023-04-15T12:45:36;3.57;;;2.43;;
32746;SDS011;19118;50.860;13.662;2023-04-15T12:50:37;4.63;;;3.07;;
32746;SDS011;19118;50.860;13.662;2023-04-15T12:55:37;4.27;;;3.07;;
32746;SDS011;19118;50.860;13.662;2023-04-15T13:00:37;3.93;;;2.83;;
32746;SDS011;19118;50.860;13.662;2023-04-15T13:05:38;4.40;;;2.80;;
32746;SDS011;19118;50.860;13.662;2023-04-15T13:10:38;4.40;;;2.70;;
32746;SDS011;19118;50.860;13.662;2023-04-15T13:15:39;3.38;;;2.50;;
32746;SDS011;19118;50.860;13.662;2023-04-15T13:20:39;3.85;;;2.35;;
32746;SDS011;19118;50.860;13.662;2023-04-15T13:25:40;3.40;;;2.50;;
32746;SDS011;19118;50.860;13.662;2023-04-15T13:30:41;6.47;;;2.10;;
32746;SDS011;19118;50.860;13.662;2023-04-15T13:35:43;2.83;;;2.30;;
32746;SDS011;19118;50.860;13.662;2023-04-15T13:40:43;3.67;;;2.00;;
32746;SDS011;19118;50.860;13.662;2023-04-15T13:45:45;4.22;;;2.88;;
32746;SDS011;19118;50.860;13.662;2023-04-15T13:50:46;3.58;;;2.60;;
32746;SDS011;19118;50.860;13.662;2023-04-15T13:55:46;5.10;;;3.17;;
32746;SDS011;19118;50.860;13.662;2023-04-15T14:00:46;5.67;;;3.23;;
32746;SDS011;19118;50.860;13.662;2023-04-15T14:05:47;4.80;;;3.43;;
32746;SDS011;19118;50.860;13.662;2023-04-15T14:10:52;4.90;;;3.42;;
32746;SDS011;19118;50.860;13.662;2023-04-15T14:15:52;4.97;;;3.53;;
32746;SDS011;19118;50.860;13.662;2023-04-15T14:20:53;4.95;;;3.30;;
32746;SDS011;19118;50.860;13.662;2023-04-15T14:25:53;4.10;;;3.13;;
32746;SDS011;19118;50.860;13.662;2023-04-15T14:30:53;2.70;;;2.33;;
32746;SDS011;19118;50.860;13.662;2023-04-15T14:35:54;3.73;;;2.70;;
32746;SDS011;19118;50.860;13.662;2023-04-15T14:40:55;3.05;;;2.38;;
32746;SDS011;19118;50.860;13.662;2023-04-15T14:45:55;3.90;;;2.10;;
32746;SDS011;19118;50.860;13.662;2023-04-15T14:50:55;3.17;;;2.37;;
32746;SDS011;19118;50.860;13.662;2023-04-15T14:55:56;2.80;;;2.10;;
32746;SDS011;19118;50.860;13.662;2023-04-15T15:00:56;2.53;;;1.90;;
32746;SDS011;19118;50.860;13.662;2023-04-15T15:05:57;3.05;;;2.20;;
32746;SDS011;19118;50.860;13.662;2023-04-15T15:10:57;2.38;;;1.90;;
32746;SDS011;19118;50.860;13.662;2023-04-15T15:15:57;2.50;;;1.77;;
32746;SDS011;19118;50.860;13.662;2023-04-15T15:20:58;5.20;;;2.25;;
32746;SDS011;19118;50.860;13.662;2023-04-15T15:25:58;3.17;;;2.10;;
32746;SDS011;19118;50.860;13.662;2023-04-15T15:30:59;3.72;;;2.72;;
32746;SDS011;19118;50.860;13.662;2023-04-15T15:35:59;7.22;;;2.63;;
32746;SDS011;19118;50.860;13.662;2023-04-15T15:41:00;4.07;;;2.67;;
32746;SDS011;19118;50.860;13.662;2023-04-15T15:46:00;6.53;;;3.03;;
32746;SDS011;19118;50.860;13.662;2023-04-15T15:51:01;4.88;;;2.20;;
32746;SDS011;19118;50.860;13.662;2023-04-15T15:56:03;3.53;;;2.22;;
32746;SDS011;19118;50.860;13.662;2023-04-15T16:01:04;11.57;;;5.78;;
32746;SDS011;19118;50.860;13.662;2023-04-15T16:06:05;15.10;;;7.07;;
32746;SDS011;19118;50.860;13.662;2023-04-15T16:11:05;24.77;;;9.85;;
32746;SDS011;19118;50.860;13.662;2023-04-15T16:16:05;6.17;;;2.93;;
32746;SDS011;19118;50.860;13.662;2023-04-15T16:21:06;9.50;;;5.53;;
32746;SDS011;19118;50.860;13.662;2023-04-15T16:26:07;4.22;;;3.45;;
32746;SDS011;19118;50.860;13.662;2023-04-15T16:31:09;4.47;;;3.37;;
32746;SDS011;19118;50.860;13.662;2023-04-15T16:36:10;7.40;;;4.00;;
32746;SDS011;19118;50.860;13.662;2023-04-15T16:41:11;6.28;;;3.70;;
32746;SDS011;19118;50.860;13.662;2023-04-15T16:46:11;6.00;;;3.70;;
32746;SDS011;19118;50.860;13.662;2023-04-15T16:51:11;4.30;;;3.67;;
32746;SDS011;19118;50.860;13.662;2023-04-15T16:56:12;5.47;;;3.23;;
32746;SDS011;19118;50.860;13.662;2023-04-15T17:01:12;8.13;;;3.23;;
32746;SDS011;19118;50.860;13.662;2023-04-15T17:06:13;6.28;;;3.20;;
32746;SDS011;19118;50.860;13.662;2023-04-15T17:11:15;4.20;;;3.00;;
32746;SDS011;19118;50.860;13.662;2023-04-15T17:16:16;4.90;;;3.95;;
32746;SDS011;19118;50.860;13.662;2023-04-15T17:21:17;6.33;;;3.33;;
32746;SDS011;19118;50.860;13.662;2023-04-15T17:26:17;5.78;;;4.40;;
32746;SDS011;19118;50.860;13.662;2023-04-15T17:31:18;13.50;;;6.28;;
32746;SDS011;19118;50.860;13.662;2023-04-15T17:36:18;6.93;;;4.67;;
32746;SDS011;19118;50.860;13.662;2023-04-15T17:41:19;10.50;;;4.70;;
32746;SDS011;19118;50.860;13.662;2023-04-15T17:46:19;14.20;;;4.68;;
32746;SDS011;19118;50.860;13.662;2023-04-15T17:51:20;6.28;;;4.28;;
32746;SDS011;19118;50.860;13.662;2023-04-15T17:56:20;5.57;;;4.15;;
32746;SDS011;19118;50.860;13.662;2023-04-15T18:01:21;6.95;;;5.43;;
32746;SDS011;19118;50.860;13.662;2023-04-15T18:06:21;11.75;;;5.85;;
32746;SDS011;19118;50.860;13.662;2023-04-15T18:11:22;8.93;;;4.65;;
32746;SDS011;19118;50.860;13.662;2023-04-15T18:16:22;5.85;;;4.53;;
32746;SDS011;19118;50.860;13.662;2023-04-15T18:21:22;10.30;;;6.40;;
32746;SDS011;19118;50.860;13.662;2023-04-15T18:26:23;6.83;;;4.50;;
32746;SDS011;19118;50.860;13.662;2023-04-15T18:31:23;10.07;;;4.38;;
32746;SDS011;19118;50.860;13.662;2023-04-15T18:36:23;5.20;;;4.47;;
32746;SDS011;19118;50.860;13.662;2023-04-15T18:41:24;7.70;;;5.05;;
32746;SDS011;19118;50.860;13.662;2023-04-15T18:46:24;6.00;;;4.75;;
32746;SDS011;19118;50.860;13.662;2023-04-15T18:51:25;6.63;;;4.85;;
32746;SDS011;19118;50.860;13.662;2023-04-15T18:56:26;13.27;;;7.50;;
32746;SDS011;19118;50.860;13.662;2023-04-15T19:01:26;20.20;;;11.27;;
32746;SDS011;19118;50.860;13.662;2023-04-15T19:06:27;13.97;;;7.67;;
32746;SDS011;19118;50.860;13.662;2023-04-15T19:11:27;11.25;;;7.65;;
32746;SDS011;19118;50.860;13.662;2023-04-15T19:16:27;12.37;;;8.37;;
32746;SDS011;19118;50.860;13.662;2023-04-15T19:21:28;22.17;;;11.32;;
32746;SDS011;19118;50.860;13.662;2023-04-15T19:26:29;13.82;;;10.40;;
32746;SDS011;19118;50.860;13.662;2023-04-15T19:31:29;16.02;;;9.02;;
32746;SDS011;19118;50.860;13.662;2023-04-15T19:36:30;13.20;;;9.02;;
32746;SDS011;19118;50.860;13.662;2023-04-15T19:41:31;15.50;;;10.23;;
32746;SDS011;19118;50.860;13.662;2023-04-15T19:46:31;15.20;;;9.70;;
32746;SDS011;19118;50.860;13.662;2023-04-15T19:51:32;18.93;;;12.13;;
32746;SDS011;19118;50.860;13.662;2023-04-15T19:56:32;15.02;;;10.90;;
32746;SDS011;19118;50.860;13.662;2023-04-15T20:01:32;18.17;;;11.52;;
32746;SDS011;19118;50.860;13.662;2023-04-15T20:06:33;15.83;;;11.50;;
32746;SDS011;19118;50.860;13.662;2023-04-15T20:11:33;17.88;;;11.25;;
32746;SDS011;19118;50.860;13.662;2023-04-15T20:16:33;16.10;;;11.13;;
32746;SDS011;19118;50.860;13.662;2023-04-15T20:21:34;13.93;;;10.55;;
32746;SDS011;19118;50.860;13.662;2023-04-15T20:26:35;21.50;;;12.10;;
32746;SDS011;19118;50.860;13.662;2023-04-15T20:31:35;22.10;;;12.07;;
32746;SDS011;19118;50.860;13.662;2023-04-15T20:36:36;19.40;;;12.80;;
32746;SDS011;19118;50.860;13.662;2023-04-15T20:41:36;18.37;;;11.83;;
32746;SDS011;19118;50.860;13.662;2023-04-15T20:46:37;18.20;;;12.80;;
32746;SDS011;19118;50.860;13.662;2023-04-15T20:51:37;18.45;;;12.23;;
32746;SDS011;19118;50.860;13.662;2023-04-15T20:56:37;20.60;;;12.43;;
32746;SDS011;19118;50.860;13.662;2023-04-15T21:01:38;18.50;;;12.50;;
32746;SDS011;19118;50.860;13.662;2023-04-15T21:06:39;20.73;;;11.35;;
32746;SDS011;19118;50.860;13.662;2023-04-15T21:11:39;20.92;;;13.35;;
32746;SDS011;19118;50.860;13.662;2023-04-15T21:16:40;19.98;;;13.50;;
32746;SDS011;19118;50.860;13.662;2023-04-15T21:21:41;19.02;;;12.82;;
32746;SDS011;19118;50.860;13.662;2023-04-15T21:26:42;16.65;;;12.00;;
32746;SDS011;19118;50.860;13.662;2023-04-15T21:31:42;19.10;;;12.20;;
32746;SDS011;19118;50.860;13.662;2023-04-15T21:36:42;18.75;;;12.07;;
32746;SDS011;19118;50.860;13.662;2023-04-15T21:41:43;20.35;;;11.65;;
32746;SDS011;19118;50.860;13.662;2023-04-15T21:46:43;17.98;;;12.93;;
32746;SDS011;19118;50.860;13.662;2023-04-15T21:51:43;17.08;;;11.98;;
32746;SDS011;19118;50.860;13.662;2023-04-15T21:56:45;24.42;;;11.55;;
32746;SDS011;19118;50.860;13.662;2023-04-15T22:01:48;16.70;;;10.75;;
32746;SDS011;19118;50.860;13.662;2023-04-15T22:06:48;17.57;;;12.17;;
32746;SDS011;19118;50.860;13.662;2023-04-15T22:11:49;17.67;;;11.75;;
32746;SDS011;19118;50.860;13.662;2023-04-15T22:16:49;20.02;;;12.25;;
32746;SDS011;19118;50.860;13.662;2023-04-15T22:21:50;18.25;;;12.02;;
32746;SDS011;19118;50.860;13.662;2023-04-15T22:26:50;17.83;;;11.77;;
32746;SDS011;19118;50.860;13.662;2023-04-15T22:31:51;18.42;;;11.63;;
32746;SDS011;19118;50.860;13.662;2023-04-15T22:36:51;27.15;;;12.50;;
32746;SDS011;19118;50.860;13.662;2023-04-15T22:41:51;22.13;;;12.40;;
32746;SDS011;19118;50.860;13.662;2023-04-15T22:46:52;22.35;;;14.60;;
32746;SDS011;19118;50.860;13.662;2023-04-15T22:51:52;24.43;;;14.17;;
32746;SDS011;19118;50.860;13.662;2023-04-15T22:56:52;20.23;;;13.07;;
32746;SDS011;19118;50.860;13.662;2023-04-15T23:01:53;23.23;;;15.53;;
32746;SDS011;19118;50.860;13.662;2023-04-15T23:06:53;25.98;;;14.43;;
32746;SDS011;19118;50.860;13.662;2023-04-15T23:11:54;19.97;;;13.97;;
32746;SDS011;19118;50.860;13.662;2023-04-15T23:16:55;19.63;;;13.48;;
32746;SDS011;19118;50.860;13.662;2023-04-15T23:21:56;21.77;;;14.65;;
32746;SDS011;19118;50.860;13.662;2023-04-15T23:26:56;19.70;;;12.20;;
32746;SDS011;19118;50.860;13.662;2023-04-15T23:31:57;23.33;;;12.93;;
32746;SDS011;19118;50.860;13.662;2023-04-15T23:36:57;18.17;;;12.30;;
32746;SDS011;19118;50.860;13.662;2023-04-15T23:41:57;17.47;;;12.80;;
32746;SDS011;19118;50.860;13.662;2023-04-15T23:46:58;29.90;;;13.40;;
32746;SDS011;19118;50.860;13.662;2023-04-15T23:51:58;24.20;;;14.43;;
32746;SDS011;19118;50.860;13.662;2023-04-15T23:56:59;22.15;;;14.82;;
